createdAt,value
2018-04-16T00:00:39.079Z,6.47
2018-04-16T00:03:07.769Z,5.93
2018-04-16T00:05:36.606Z,6.80
2018-04-16T00:08:04.985Z,6.20
2018-04-16T00:10:33.371Z,5.87
2018-04-16T00:13:01.775Z,5.97
2018-04-16T00:15:30.154Z,5.47
2018-04-16T00:17:58.599Z,6.03
2018-04-16T00:20:26.964Z,5.53
2018-04-16T00:22:55.392Z,6.00
2018-04-16T00:25:23.754Z,5.60
2018-04-16T00:27:52.132Z,5.83
2018-04-16T00:30:20.556Z,5.33
2018-04-16T00:32:54.604Z,4.80
2018-04-16T00:35:28.561Z,5.50
2018-04-16T00:38:02.584Z,5.40
2018-04-16T00:40:36.521Z,5.43
2018-04-16T00:43:10.461Z,5.33
2018-04-16T00:45:44.507Z,5.60
2018-04-16T00:48:18.517Z,5.37
2018-04-16T00:50:52.605Z,5.87
2018-04-16T00:53:26.471Z,4.97
2018-04-16T00:56:00.517Z,5.93
2018-04-16T01:01:36.722Z,6.07
2018-04-16T01:04:10.759Z,6.00
2018-04-16T01:06:44.712Z,5.73
2018-04-16T01:09:18.749Z,5.83
2018-04-16T01:11:52.906Z,6.13
2018-04-16T01:14:27.006Z,6.83
2018-04-16T01:17:00.927Z,6.00
2018-04-16T01:22:40.542Z,5.57
2018-04-16T01:25:14.458Z,5.00
2018-04-16T01:27:48.555Z,5.77
2018-04-16T01:30:22.683Z,4.93
2018-04-16T01:32:56.750Z,5.13
2018-04-16T01:38:35.152Z,5.10
2018-04-16T01:41:09.214Z,5.67
2018-04-16T01:43:43.307Z,5.40
2018-04-16T01:46:17.375Z,6.10
2018-04-16T01:51:53.813Z,5.00
2018-04-16T01:57:37.422Z,5.10
2018-04-16T02:00:11.379Z,4.47
2018-04-16T02:02:45.524Z,5.47
2018-04-16T02:08:22.000Z,6.23
2018-04-16T02:10:56.204Z,6.50
2018-04-16T02:13:30.139Z,6.20
2018-04-16T02:16:04.184Z,5.70
2018-04-16T02:18:38.120Z,6.90
2018-04-16T02:21:12.043Z,5.60
2018-04-16T02:23:46.034Z,5.40
2018-04-16T02:26:19.959Z,5.60
2018-04-16T02:28:53.898Z,4.90
2018-04-16T02:31:28.144Z,4.50
2018-04-16T02:34:02.180Z,4.53
2018-04-16T02:36:36.251Z,4.63
2018-04-16T02:39:10.291Z,4.80
2018-04-16T02:41:44.244Z,4.90
2018-04-16T02:44:18.345Z,4.43
2018-04-16T02:46:52.216Z,5.00
2018-04-16T02:49:26.331Z,4.27
2018-04-16T02:52:00.355Z,4.57
2018-04-16T02:54:34.369Z,4.60
2018-04-16T02:57:08.446Z,4.77
2018-04-16T02:59:42.548Z,5.10
2018-04-16T03:02:16.617Z,4.77
2018-04-16T03:04:50.666Z,5.30
2018-04-16T03:07:24.755Z,5.83
2018-04-16T03:09:59.030Z,5.33
2018-04-16T03:12:33.126Z,5.63
2018-04-16T03:15:07.182Z,5.00
2018-04-16T03:17:41.269Z,5.33
2018-04-16T03:20:15.186Z,5.00
2018-04-16T03:22:49.150Z,5.10
2018-04-16T03:25:23.248Z,4.60
2018-04-16T03:27:57.233Z,5.37
2018-04-16T03:30:31.158Z,4.97
2018-04-16T03:33:05.131Z,4.93
2018-04-16T03:35:39.315Z,4.43
2018-04-16T03:38:13.291Z,4.50
2018-04-16T03:40:47.241Z,5.17
2018-04-16T03:43:21.357Z,4.33
2018-04-16T03:45:55.398Z,4.20
2018-04-16T03:48:29.887Z,4.40
2018-04-16T03:54:12.675Z,4.63
2018-04-16T03:56:41.048Z,4.57
2018-04-16T03:59:09.545Z,4.43
2018-04-16T04:01:37.965Z,4.87
2018-04-16T04:04:06.347Z,5.07
2018-04-16T04:06:34.735Z,4.77
2018-04-16T04:09:03.119Z,4.90
2018-04-16T04:11:31.563Z,5.13
2018-04-16T04:13:59.941Z,5.00
2018-04-16T04:16:28.322Z,4.80
2018-04-16T04:18:56.799Z,5.00
2018-04-16T04:21:25.739Z,4.63
2018-04-16T04:24:05.788Z,5.67
2018-04-16T04:26:45.847Z,4.67
2018-04-16T04:29:26.015Z,3.80
2018-04-16T04:31:54.386Z,2.93
2018-04-16T04:34:22.871Z,2.77
2018-04-16T04:36:51.249Z,2.80
2018-04-16T04:39:19.667Z,2.27
2018-04-16T04:41:48.028Z,4.37
2018-04-16T04:44:16.409Z,3.00
2018-04-16T04:46:44.903Z,3.17
2018-04-16T04:49:13.320Z,2.83
2018-04-16T04:51:41.686Z,3.20
2018-04-16T04:54:10.060Z,2.63
2018-04-16T04:56:38.439Z,3.30
2018-04-16T04:59:06.900Z,2.73
2018-04-16T05:01:35.366Z,2.90
2018-04-16T05:04:03.792Z,3.20
2018-04-16T05:06:32.368Z,3.33
2018-04-16T05:09:00.734Z,3.00
2018-04-16T05:11:29.156Z,3.20
2018-04-16T05:13:57.568Z,3.90
2018-04-16T05:16:26.215Z,4.03
2018-04-16T05:18:54.742Z,3.70
2018-04-16T05:21:23.176Z,5.03
2018-04-16T05:23:51.605Z,2.97
2018-04-16T05:26:19.995Z,3.30
2018-04-16T05:28:48.452Z,4.10
2018-04-16T05:31:16.915Z,3.33
2018-04-16T05:33:45.323Z,3.90
2018-04-16T05:36:13.705Z,3.80
2018-04-16T05:38:42.215Z,3.20
2018-04-16T05:41:10.656Z,3.37
2018-04-16T05:43:39.059Z,3.50
2018-04-16T05:46:07.507Z,2.80
2018-04-16T05:48:35.936Z,3.93
2018-04-16T05:51:04.504Z,3.30
2018-04-16T05:53:32.909Z,3.27
2018-04-16T05:56:01.385Z,3.30
2018-04-16T05:58:29.828Z,4.00
2018-04-16T06:00:58.222Z,3.30
2018-04-16T06:03:26.678Z,2.80
2018-04-16T06:05:55.095Z,3.90
2018-04-16T06:08:23.532Z,3.73
2018-04-16T06:10:52.046Z,3.80
2018-04-16T06:13:20.460Z,3.23
2018-04-16T06:15:48.920Z,4.03
2018-04-16T06:18:17.363Z,3.20
2018-04-16T06:20:45.787Z,2.40
2018-04-16T06:23:14.185Z,3.20
2018-04-16T06:25:42.616Z,3.13
2018-04-16T06:28:11.092Z,3.10
2018-04-16T06:30:39.491Z,3.13
2018-04-16T06:33:07.968Z,2.90
2018-04-16T06:35:36.352Z,3.10
2018-04-16T06:38:04.772Z,2.73
2018-04-16T06:40:33.176Z,3.27
2018-04-16T06:43:01.571Z,2.80
2018-04-16T06:45:30.030Z,2.90
2018-04-16T06:47:58.426Z,3.30
2018-04-16T06:50:26.889Z,3.53
2018-04-16T06:52:55.271Z,3.87
2018-04-16T06:55:23.962Z,3.13
2018-04-16T06:57:52.339Z,3.53
2018-04-16T07:00:20.769Z,4.10
2018-04-16T07:02:49.228Z,3.93
2018-04-16T07:05:17.619Z,3.80
2018-04-16T07:07:46.049Z,4.10
2018-04-16T07:10:14.536Z,3.03
2018-04-16T07:12:42.904Z,3.40
2018-04-16T07:15:11.403Z,4.30
2018-04-16T07:17:39.799Z,5.03
2018-04-16T07:20:08.261Z,5.80
2018-04-16T07:22:36.714Z,6.10
2018-04-16T07:25:05.120Z,6.57
2018-04-16T07:27:33.521Z,5.80
2018-04-16T07:30:01.911Z,6.77
2018-04-16T07:32:30.319Z,6.20
2018-04-16T07:34:58.721Z,5.93
2018-04-16T07:37:27.216Z,5.13
2018-04-16T07:39:55.662Z,5.50
2018-04-16T07:42:24.067Z,5.67
2018-04-16T07:44:53.729Z,4.83
2018-04-16T07:47:22.423Z,5.50
2018-04-16T07:49:50.823Z,5.37
2018-04-16T07:54:49.802Z,5.30
2018-04-16T07:57:18.401Z,5.70
2018-04-16T07:59:46.784Z,5.30
2018-04-16T08:02:15.183Z,4.83
2018-04-16T08:04:43.670Z,5.60
2018-04-16T08:07:12.063Z,5.53
2018-04-16T08:09:40.528Z,5.80
2018-04-16T08:12:08.943Z,6.20
2018-04-16T08:14:37.340Z,5.50
2018-04-16T08:17:05.743Z,5.90
2018-04-16T08:19:34.137Z,6.03
2018-04-16T08:22:02.558Z,5.93
2018-04-16T08:24:30.974Z,5.93
2018-04-16T08:26:59.497Z,5.77
2018-04-16T08:29:27.909Z,5.50
2018-04-16T08:31:56.493Z,5.67
2018-04-16T08:34:31.037Z,5.80
2018-04-16T08:36:59.759Z,5.67
2018-04-16T08:39:28.244Z,6.17
2018-04-16T08:41:56.770Z,6.40
2018-04-16T08:44:25.182Z,6.00
2018-04-16T08:46:53.993Z,6.90
2018-04-16T08:49:22.393Z,7.10
2018-04-16T08:51:50.823Z,6.07
2018-04-16T08:54:19.249Z,7.03
2018-04-16T08:56:47.660Z,7.07
2018-04-16T08:59:16.076Z,6.77
2018-04-16T09:01:44.587Z,8.23
2018-04-16T09:04:16.001Z,9.80
2018-04-16T09:06:44.601Z,10.20
2018-04-16T09:09:13.014Z,8.20
2018-04-16T09:11:41.427Z,6.10
2018-04-16T09:14:09.799Z,6.77
2018-04-16T09:16:38.201Z,6.47
2018-04-16T09:19:06.583Z,5.80
2018-04-16T09:21:34.999Z,5.70
2018-04-16T09:24:03.446Z,5.23
2018-04-16T09:26:31.842Z,6.77
2018-04-16T09:29:00.215Z,5.70
2018-04-16T09:31:28.585Z,6.50
2018-04-16T09:33:57.053Z,4.90
2018-04-16T09:36:25.656Z,5.10
2018-04-16T09:38:54.045Z,5.40
2018-04-16T09:41:22.423Z,4.30
2018-04-16T09:43:51.307Z,5.23
2018-04-16T09:46:19.941Z,4.63
2018-04-16T09:48:48.488Z,4.27
2018-04-16T09:51:16.846Z,4.30
2018-04-16T09:53:45.481Z,4.10
2018-04-16T09:56:13.873Z,4.23
2018-04-16T09:58:42.267Z,4.20
2018-04-16T10:01:16.235Z,4.20
2018-04-16T10:03:44.671Z,4.93
2018-04-16T10:06:13.261Z,4.90
2018-04-16T10:08:41.655Z,4.47
2018-04-16T10:11:10.100Z,4.00
2018-04-16T10:13:38.887Z,4.40
2018-04-16T10:16:07.593Z,5.67
2018-04-16T10:18:36.045Z,5.50
2018-04-16T10:21:04.462Z,4.47
2018-04-16T10:23:32.892Z,6.27
2018-04-16T10:26:01.265Z,6.47
2018-04-16T10:28:29.748Z,6.20
2018-04-16T10:30:58.187Z,6.90
2018-04-16T10:33:26.603Z,5.63
2018-04-16T10:35:54.979Z,5.60
2018-04-16T10:38:23.395Z,5.90
2018-04-16T10:40:52.031Z,6.70
2018-04-16T10:43:20.451Z,3.50
2018-04-16T10:45:48.907Z,3.33
2018-04-16T10:48:17.327Z,3.60
2018-04-16T10:50:45.701Z,4.20
2018-04-16T10:53:14.099Z,4.17
2018-04-16T10:55:42.498Z,4.40
2018-04-16T10:58:10.959Z,4.07
2018-04-16T11:00:39.341Z,4.80
2018-04-16T11:03:07.732Z,4.33
2018-04-16T11:05:36.166Z,3.20
2018-04-16T11:08:04.543Z,2.90
2018-04-16T11:10:33.000Z,4.00
2018-04-16T11:13:01.429Z,6.03
2018-04-16T11:15:29.857Z,4.63
2018-04-16T11:17:58.381Z,3.17
2018-04-16T11:20:26.787Z,3.07
2018-04-16T11:22:55.174Z,3.20
2018-04-16T11:25:23.595Z,3.27
2018-04-16T11:27:52.005Z,3.13
2018-04-16T11:30:20.701Z,3.17
2018-04-16T11:32:49.558Z,3.07
2018-04-16T11:35:17.972Z,2.40
2018-04-16T11:37:46.383Z,3.60
2018-04-16T11:40:14.802Z,3.70
2018-04-16T11:42:43.220Z,3.80
2018-04-16T11:45:11.647Z,3.33
2018-04-16T11:47:40.024Z,3.70
2018-04-16T11:50:08.413Z,3.13
2018-04-16T11:52:37.668Z,2.80
2018-04-16T11:55:06.081Z,3.60
2018-04-16T11:57:34.527Z,4.20
2018-04-16T12:00:02.882Z,4.23
2018-04-16T12:02:31.519Z,3.43
2018-04-16T12:04:59.899Z,3.50
2018-04-16T12:07:28.302Z,3.60
2018-04-16T12:09:56.710Z,3.60
2018-04-16T12:12:25.110Z,3.57
2018-04-16T12:14:53.519Z,3.20
2018-04-16T12:17:21.898Z,3.70
2018-04-16T12:19:50.807Z,7.53
2018-04-16T12:22:19.849Z,8.47
2018-04-16T12:24:48.257Z,10.77
2018-04-16T12:27:16.654Z,9.60
2018-04-16T12:29:45.131Z,10.13
2018-04-16T12:32:13.588Z,10.53
2018-04-16T12:34:41.972Z,9.30
2018-04-16T12:37:10.371Z,9.20
2018-04-16T12:39:38.769Z,8.83
2018-04-16T12:42:07.977Z,7.40
2018-04-16T12:44:36.411Z,6.03
2018-04-16T12:47:04.823Z,6.10
2018-04-16T12:49:33.257Z,5.40
2018-04-16T12:52:01.683Z,6.13
2018-04-16T12:54:30.197Z,5.33
2018-04-16T12:56:58.618Z,5.67
2018-04-16T12:59:27.027Z,6.27
2018-04-16T13:01:55.519Z,6.60
2018-04-16T13:04:23.958Z,6.03
2018-04-16T13:06:52.321Z,5.47
2018-04-16T13:09:21.249Z,5.10
2018-04-16T13:11:49.724Z,5.00
2018-04-16T13:14:18.237Z,4.80
2018-04-16T13:16:46.652Z,5.20
2018-04-16T13:19:15.126Z,5.93
2018-04-16T13:21:45.492Z,5.27
2018-04-16T13:24:13.896Z,3.77
2018-04-16T13:26:42.463Z,3.30
2018-04-16T13:29:10.863Z,3.60
2018-04-16T13:31:39.385Z,3.33
2018-04-16T13:34:07.853Z,3.73
2018-04-16T13:36:36.298Z,3.67
2018-04-16T13:39:04.770Z,3.67
2018-04-16T13:41:33.188Z,3.20
2018-04-16T13:44:01.595Z,3.87
2018-04-16T13:46:30.179Z,3.63
2018-04-16T13:48:58.640Z,3.90
2018-04-16T13:51:27.043Z,3.83
2018-04-16T13:53:55.490Z,3.60
2018-04-16T13:56:23.959Z,4.40
2018-04-16T13:58:52.737Z,3.90
2018-04-16T14:01:21.458Z,3.87
2018-04-16T14:03:49.859Z,4.33
2018-04-16T14:06:18.370Z,3.90
2018-04-16T14:08:46.774Z,4.13
2018-04-16T14:11:15.176Z,4.27
2018-04-16T14:13:43.731Z,4.43
2018-04-16T14:16:12.151Z,4.90
2018-04-16T14:18:40.526Z,4.30
2018-04-16T14:21:09.719Z,4.70
2018-04-16T14:23:38.378Z,4.30
2018-04-16T14:26:07.284Z,4.30
2018-04-16T14:28:35.890Z,4.40
2018-04-16T14:31:04.625Z,4.97
2018-04-16T14:33:33.235Z,4.70
2018-04-16T14:36:01.883Z,4.40
2018-04-16T14:38:30.889Z,3.90
2018-04-16T14:40:59.587Z,3.97
2018-04-16T14:43:30.177Z,3.90
2018-04-16T14:45:58.806Z,3.47
2018-04-16T14:48:27.919Z,4.10
2018-04-16T14:50:56.333Z,3.70
2018-04-16T14:53:24.807Z,4.33
2018-04-16T14:55:53.376Z,4.67
2018-04-16T14:58:21.783Z,5.00
2018-04-16T15:00:50.210Z,5.90
2018-04-16T15:03:18.905Z,6.53
2018-04-16T15:05:47.309Z,7.93
2018-04-16T15:08:15.731Z,7.80
2018-04-16T15:10:44.141Z,8.83
2018-04-16T15:13:12.748Z,9.50
2018-04-16T15:15:41.317Z,10.20
2018-04-16T15:18:09.764Z,9.50
2018-04-16T15:20:40.106Z,12.10
2018-04-16T15:23:08.520Z,11.63
2018-04-16T15:25:36.919Z,12.60
2018-04-16T15:28:05.350Z,12.10
2018-04-16T15:30:33.770Z,12.60
2018-04-16T15:33:02.515Z,11.53
2018-04-16T15:35:31.199Z,14.10
2018-04-16T15:38:00.959Z,14.80
2018-04-16T15:40:29.441Z,15.70
2018-04-16T15:42:57.867Z,18.53
2018-04-16T15:45:26.322Z,19.90
2018-04-16T15:47:55.005Z,21.50
2018-04-16T15:50:23.428Z,21.90
2018-04-16T15:52:51.859Z,22.20
2018-04-16T15:55:21.241Z,22.80
2018-04-16T15:57:49.688Z,21.30
2018-04-16T16:00:18.101Z,20.80
2018-04-16T16:02:46.563Z,22.27
2018-04-16T16:05:21.951Z,21.40
2018-04-16T16:07:50.393Z,20.13
2018-04-16T16:10:19.157Z,21.90
2018-04-16T16:12:47.598Z,21.63
2018-04-16T16:15:16.035Z,21.90
2018-04-16T16:17:45.515Z,21.83
2018-04-16T16:20:14.006Z,22.50
2018-04-16T16:22:42.441Z,22.67
2018-04-16T16:25:10.849Z,24.17
2018-04-16T16:27:39.283Z,23.53
2018-04-16T16:30:07.824Z,21.73
2018-04-16T16:32:36.497Z,23.50
2018-04-16T16:35:04.925Z,22.87
2018-04-16T16:37:33.303Z,23.40
2018-04-16T16:40:01.865Z,23.40
2018-04-16T16:42:30.251Z,23.70
2018-04-16T16:44:58.646Z,23.47
2018-04-16T16:47:27.022Z,22.70
2018-04-16T16:49:55.401Z,19.90
2018-04-16T16:52:23.849Z,18.30
2018-04-16T16:54:52.614Z,17.13
2018-04-16T16:57:21.088Z,15.93
2018-04-16T16:59:49.499Z,16.70
2018-04-16T17:02:19.151Z,16.53
2018-04-16T17:04:48.211Z,15.23
2018-04-16T17:07:16.629Z,16.10
2018-04-16T17:09:45.062Z,15.80
2018-04-16T17:12:13.468Z,15.73
2018-04-16T17:14:41.876Z,14.57
2018-04-16T17:17:10.291Z,17.53
2018-04-16T17:19:38.742Z,16.23
2018-04-16T17:22:07.201Z,17.60
2018-04-16T17:24:35.625Z,19.83
2018-04-16T17:27:04.035Z,19.00
2018-04-16T17:29:32.456Z,19.60
2018-04-16T17:32:00.872Z,18.67
2018-04-16T17:34:29.291Z,18.40
2018-04-16T17:36:57.683Z,20.57
2018-04-16T17:39:26.203Z,19.17
2018-04-16T17:41:55.574Z,19.40
2018-04-16T17:44:25.237Z,17.40
2018-04-16T17:46:53.661Z,19.60
2018-04-16T17:49:22.067Z,17.23
2018-04-16T17:51:50.871Z,17.90
2018-04-16T17:54:23.788Z,18.93
2018-04-16T17:56:52.284Z,17.47
2018-04-16T17:59:20.713Z,18.00
2018-04-16T18:01:49.636Z,17.00
2018-04-16T18:04:18.144Z,16.17
2018-04-16T18:06:46.634Z,17.67
2018-04-16T18:09:15.119Z,16.17
2018-04-16T18:11:43.632Z,17.17
2018-04-16T18:14:12.064Z,17.90
2018-04-16T18:16:40.533Z,16.90
2018-04-16T18:19:08.968Z,17.20
2018-04-16T18:21:37.424Z,17.10
2018-04-16T18:24:05.894Z,16.83
2018-04-16T18:26:34.544Z,18.10
2018-04-16T18:29:02.967Z,17.60
2018-04-16T18:31:31.783Z,16.73
2018-04-16T18:34:00.515Z,17.00
2018-04-16T18:36:30.224Z,15.87
2018-04-16T18:38:58.934Z,16.87
2018-04-16T18:41:27.480Z,17.70
2018-04-16T18:43:56.691Z,16.13
2018-04-16T18:46:27.177Z,15.60
2018-04-16T18:48:55.676Z,16.87
2018-04-16T18:51:24.871Z,16.23
2018-04-16T18:53:53.563Z,15.27
2018-04-16T18:56:23.505Z,15.50
2018-04-16T18:58:52.125Z,17.10
2018-04-16T19:01:20.670Z,17.97
2018-04-16T19:03:49.202Z,17.53
2018-04-16T19:06:17.660Z,17.47
2018-04-16T19:08:46.114Z,18.37
2018-04-16T19:11:14.563Z,19.20
2018-04-16T19:13:43.067Z,18.57
2018-04-16T19:16:11.540Z,16.13
2018-04-16T19:18:40.240Z,18.73
2018-04-16T19:21:14.219Z,17.10
2018-04-16T19:23:43.399Z,17.93
2018-04-16T19:26:11.804Z,18.07
2018-04-16T19:28:40.333Z,18.20
2018-04-16T19:31:08.733Z,19.10
2018-04-16T19:33:42.694Z,19.27
2018-04-16T19:36:11.186Z,18.13
2018-04-16T19:38:39.773Z,18.40
2018-04-16T19:41:08.489Z,16.87
2018-04-16T19:43:37.088Z,18.43
2018-04-16T19:46:05.998Z,17.03
2018-04-16T19:48:42.765Z,18.30
2018-04-16T19:51:11.151Z,17.73
2018-04-16T19:53:39.663Z,17.67
2018-04-16T19:56:14.034Z,18.50
2018-04-16T19:58:42.479Z,18.80
2018-04-16T20:01:11.196Z,17.20
2018-04-16T20:03:45.262Z,21.30
2018-04-16T20:06:13.697Z,24.90
2018-04-16T20:08:42.149Z,21.10
2018-04-16T20:11:10.557Z,17.57
2018-04-16T20:13:39.835Z,16.70
2018-04-16T20:16:08.433Z,16.60
2018-04-16T20:18:36.835Z,18.60
2018-04-16T20:21:05.435Z,17.20
2018-04-16T20:23:33.826Z,17.47
2018-04-16T20:26:02.335Z,19.40
2018-04-16T20:28:30.753Z,18.60
2018-04-16T20:30:59.201Z,18.80
2018-04-16T20:33:27.609Z,25.80
2018-04-16T20:35:56.084Z,47.83
2018-04-16T20:38:24.661Z,20.40
2018-04-16T20:40:53.084Z,18.10
2018-04-16T20:43:21.549Z,17.43
2018-04-16T20:45:49.943Z,15.87
2018-04-16T20:48:18.366Z,17.30
2018-04-16T20:50:46.849Z,16.80
2018-04-16T20:53:15.275Z,15.40
2018-04-16T20:55:43.689Z,16.17
2018-04-16T20:58:12.095Z,16.70
2018-04-16T21:00:40.503Z,16.80
2018-04-16T21:03:08.943Z,16.57
2018-04-16T21:05:37.377Z,16.63
2018-04-16T21:08:06.137Z,15.90
2018-04-16T21:10:34.508Z,14.87
2018-04-16T21:13:02.885Z,15.93
2018-04-16T21:15:34.424Z,15.80
2018-04-16T21:18:02.834Z,15.60
2018-04-16T21:20:31.406Z,14.40
2018-04-16T21:22:59.828Z,15.20
2018-04-16T21:25:28.336Z,14.13
2018-04-16T21:27:56.719Z,14.13
2018-04-16T21:30:25.258Z,16.07
2018-04-16T21:32:53.689Z,15.53
2018-04-16T21:35:22.110Z,16.77
2018-04-16T21:37:50.525Z,15.00
2018-04-16T21:40:18.943Z,16.40
2018-04-16T21:42:47.369Z,16.40
2018-04-16T21:45:15.846Z,15.17
2018-04-16T21:47:44.248Z,15.77
2018-04-16T21:50:12.650Z,15.73
2018-04-16T21:52:41.079Z,15.30
2018-04-16T21:55:09.582Z,15.30
2018-04-16T21:57:38.668Z,14.70
2018-04-16T22:00:07.083Z,15.10
2018-04-16T22:02:35.472Z,14.73
2018-04-16T22:05:03.875Z,14.20
2018-04-16T22:07:32.286Z,14.00
2018-04-16T22:10:00.731Z,15.50
2018-04-16T22:12:29.110Z,14.50
2018-04-16T22:14:57.648Z,14.20
2018-04-16T22:17:26.068Z,13.97
2018-04-16T22:19:54.503Z,12.70
2018-04-16T22:22:22.961Z,13.40
2018-04-16T22:24:51.369Z,12.80
2018-04-16T22:27:19.883Z,14.47
2018-04-16T22:29:48.365Z,15.63
2018-04-16T22:32:16.774Z,15.37
2018-04-16T22:34:45.215Z,15.30
2018-04-16T22:37:13.623Z,15.37
2018-04-16T22:39:42.071Z,14.30
2018-04-16T22:42:10.476Z,14.70
2018-04-16T22:44:38.888Z,14.73
2018-04-16T22:47:07.304Z,13.20
2018-04-16T22:49:35.711Z,14.70
2018-04-16T22:52:04.139Z,14.70
2018-04-16T22:54:32.513Z,15.23
2018-04-16T22:57:00.962Z,15.33
2018-04-16T22:59:29.377Z,13.30
2018-04-16T23:01:57.875Z,14.50
2018-04-16T23:04:26.283Z,13.00
2018-04-16T23:06:54.690Z,13.73
2018-04-16T23:09:23.126Z,12.57
2018-04-16T23:11:51.511Z,12.57
2018-04-16T23:14:20.100Z,11.60
2018-04-16T23:16:48.487Z,10.97
2018-04-16T23:19:17.641Z,13.63
2018-04-16T23:21:46.070Z,12.33
2018-04-16T23:24:14.440Z,12.30
2018-04-16T23:26:42.880Z,12.90
2018-04-16T23:29:11.250Z,11.53
2018-04-16T23:31:39.637Z,12.57
2018-04-16T23:34:08.030Z,13.50
2018-04-16T23:36:36.954Z,13.20
2018-04-16T23:39:06.674Z,12.77
2018-04-16T23:41:35.311Z,12.17
2018-04-16T23:44:03.800Z,13.60
2018-04-16T23:46:32.171Z,12.20
2018-04-16T23:49:00.551Z,11.73
2018-04-16T23:51:28.986Z,11.83
2018-04-16T23:53:57.376Z,12.53
2018-04-16T23:56:25.747Z,11.90
2018-04-16T23:58:54.131Z,11.43
